Time;durP1;ratioP1;P1;durP2;ratioP2;P2;SDS_P1;SDS_P2;PMS_P1;PMS_P2;Temp;Humidity;BMP_temperature;BMP_pressure;BME280_temperature;BME280_humidity;BME280_pressure;Samples;Min_cycle;Max_cycle;Signal;HPM_P1;HPM_P2
2023/05/03 00:02:16;;;;;;;;;;;;;;;;;;5035929;28;19913;-77
2023/05/03 00:04:45;;;;;;;;;;;;;;;;;;5035666;28;19919;-75
2023/05/03 00:07:10;;;;;;;;;;;;;;;;;;5035705;28;19913;-77
2023/05/03 00:09:35;;;;;;;;;;;;;;;;;;5034285;28;20016;-77
2023/05/03 00:12:01;;;;;;;;;;;;;;;;;;5034284;28;19920;-78
2023/05/03 00:14:26;;;;;;;;;;;;;;;;;;5033386;28;19921;-78
2023/05/03 00:16:52;;;;;;;;;;;;;;;;;;5015583;28;19913;-77
2023/05/03 00:19:18;;;;;;;;;;;;;;;;;;5034713;28;19917;-77
2023/05/03 00:21:43;;;;;;;;;;;;;;;;;;5035415;28;20379;-77
2023/05/03 00:24:09;;;;;;;;;;;;;;;;;;5034592;28;19920;-78
2023/05/03 00:26:34;;;;;;;;;;;;;;;;;;5035238;28;19964;-77
2023/05/03 00:29:00;;;;;;;;;;;;;;;;;;5035162;28;19913;-77
2023/05/03 00:31:25;;;;;;;;;;;;;;;;;;5033820;28;19924;-77
2023/05/03 00:33:50;;;;;;;;;;;;;;;;;;5029458;28;19921;-77
2023/05/03 00:36:16;;;;;;;;;;;;;;;;;;5015928;28;19920;-78
2023/05/03 00:38:41;;;;;;;;;;;;;;;;;;5016083;28;19979;-77
2023/05/03 00:41:07;;;;;;;;;;;;;;;;;;5014638;28;19917;-76
2023/05/03 00:43:32;;;;;;;;;;;;;;;;;;5014733;28;19967;-77
2023/05/03 00:45:57;;;;;;;;;;;;;;;;;;5014479;28;19917;-77
2023/05/03 00:48:23;;;;;;;;;;;;;;;;;;4998229;28;19913;-76
2023/05/03 00:50:48;;;;;;;;;;;;;;;;;;5029013;28;19964;-77
2023/05/03 00:53:14;;;;;;;;;;;;;;;;;;5034356;28;19913;-78
2023/05/03 00:55:40;;;;;;;;;;;;;;;;;;5017908;28;20364;-76
2023/05/03 00:58:05;;;;;;;;;;;;;;;;;;5034082;28;19924;-77
2023/05/03 01:00:30;;;;;;;;;;;;;;;;;;5034192;28;19913;-77
2023/05/03 01:02:56;;;;;;;;;;;;;;;;;;5031877;22;20360;-77
2023/05/03 01:05:21;;;;;;;;;;;;;;;;;;5012785;28;19920;-77
2023/05/03 01:07:47;;;;;;;;;;;;;;;;;;5014196;28;19913;-78
2023/05/03 01:10:12;;;;;;;;;;;;;;;;;;5014478;28;19921;-76
2023/05/03 01:12:38;;;;;;;;;;;;;;;;;;5015481;28;19936;-77
2023/05/03 01:15:03;;;;;;;;;;;;;;;;;;5015922;28;19956;-77
2023/05/03 01:17:28;;;;;;;;;;;;;;;;;;5014603;28;19963;-78
2023/05/03 01:19:55;;;;;;;;;;;;;;;;;;5014867;28;20300;-78
2023/05/03 01:22:21;;;;;;;;;;;;;;;;;;5016542;28;19913;-76
2023/05/03 01:24:46;;;;;;;;;;;;;;;;;;5018022;28;19914;-78
2023/05/03 01:27:12;;;;;;;;;;;;;;;;;;5015502;28;19937;-77
2023/05/03 01:29:37;;;;;;;;;;;;;;;;;;5022272;28;19914;-77
2023/05/03 01:32:03;;;;;;;;;;;;;;;;;;5010974;28;19977;-79
2023/05/03 01:34:29;;;;;;;;;;;;;;;;;;5027321;28;20279;-77
2023/05/03 01:36:54;;;;;;;;;;;;;;;;;;5026035;28;19917;-78
2023/05/03 01:39:20;;;;;;;;;;;;;;;;;;5023103;28;20407;-77
2023/05/03 01:41:45;;;;;;;;;;;;;;;;;;5017240;28;20004;-79
2023/05/03 01:44:10;;;;;;;;;;;;;;;;;;4996301;28;20356;-77
2023/05/03 01:46:36;;;;;;;;;;;;;;;;;;5012381;28;19913;-75
2023/05/03 01:49:01;;;;;;;;;;;;;;;;;;5013352;28;20407;-76
2023/05/03 01:51:28;;;;;;;;;;;;;;;;;;5013401;28;19914;-79
2023/05/03 01:53:53;;;;;;;;;;;;;;;;;;4996358;28;20377;-77
2023/05/03 01:56:18;;;;;;;;;;;;;;;;;;5012565;28;19921;-76
2023/05/03 01:58:44;;;;;;;;;;;;;;;;;;5014066;28;20439;-77
2023/05/03 02:01:09;;;;;;;;;;;;;;;;;;5012790;28;19941;-78
2023/05/03 02:03:35;;;;;;;;;;;;;;;;;;5012675;28;20455;-77
2023/05/03 02:06:00;;;;;;;;;;;;;;;;;;5012056;28;19967;-78
2023/05/03 02:08:27;;;;;;;;;;;;;;;;;;5014146;28;19914;-77
2023/05/03 02:10:52;;;;;;;;;;;;;;;;;;5014784;28;19914;-76
2023/05/03 02:13:18;;;;;;;;;;;;;;;;;;5015557;28;19913;-78
2023/05/03 02:15:43;;;;;;;;;;;;;;;;;;5014851;28;19913;-79
2023/05/03 02:18:09;;;;;;;;;;;;;;;;;;5015083;28;19924;-78
2023/05/03 02:20:36;;;;;;;;;;;;;;;;;;5013565;28;19957;-77
2023/05/03 02:23:02;;;;;;;;;;;;;;;;;;5009090;28;19918;-77
2023/05/03 02:25:27;;;;;;;;;;;;;;;;;;5013798;28;19913;-78
2023/05/03 02:27:52;;;;;;;;;;;;;;;;;;5013562;28;20013;-77
2023/05/03 02:30:18;;;;;;;;;;;;;;;;;;5011972;28;19921;-77
2023/05/03 02:32:43;;;;;;;;;;;;;;;;;;5012496;28;19913;-78
2023/05/03 02:35:09;;;;;;;;;;;;;;;;;;5013282;28;19914;-78
2023/05/03 02:37:34;;;;;;;;;;;;;;;;;;5019615;28;19944;-77
2023/05/03 02:40:04;;;;;;;;;;;;;;;;;;4998916;28;19917;-77
2023/05/03 02:42:30;;;;;;;;;;;;;;;;;;5014153;28;19914;-76
2023/05/03 02:44:55;;;;;;;;;;;;;;;;;;5012551;28;19914;-78
2023/05/03 02:47:22;;;;;;;;;;;;;;;;;;4995621;28;19919;-78
2023/05/03 02:49:47;;;;;;;;;;;;;;;;;;5011787;28;20024;-77
2023/05/03 02:52:13;;;;;;;;;;;;;;;;;;5011400;28;19913;-76
2023/05/03 02:54:38;;;;;;;;;;;;;;;;;;5011545;28;20296;-78
2023/05/03 02:57:08;;;;;;;;;;;;;;;;;;5011417;28;19917;-77
2023/05/03 02:59:34;;;;;;;;;;;;;;;;;;5008851;28;19917;-78
2023/05/03 03:02:00;;;;;;;;;;;;;;;;;;5011220;28;19921;-76
2023/05/03 03:04:25;;;;;;;;;;;;;;;;;;5011376;28;19914;-77
2023/05/03 03:06:52;;;;;;;;;;;;;;;;;;5012626;28;19941;-78
2023/05/03 03:09:17;;;;;;;;;;;;;;;;;;5011821;28;19913;-77
2023/05/03 03:11:43;;;;;;;;;;;;;;;;;;5011309;28;19969;-78
2023/05/03 03:14:08;;;;;;;;;;;;;;;;;;4995136;28;19913;-77
2023/05/03 03:16:34;;;;;;;;;;;;;;;;;;5009846;28;19959;-78
2023/05/03 03:18:59;;;;;;;;;;;;;;;;;;5012357;28;19929;-77
2023/05/03 03:21:27;;;;;;;;;;;;;;;;;;5013692;28;20348;-77
2023/05/03 03:23:53;;;;;;;;;;;;;;;;;;5015125;28;19917;-77
2023/05/03 03:26:18;;;;;;;;;;;;;;;;;;5016439;28;19921;-77
2023/05/03 03:28:43;;;;;;;;;;;;;;;;;;5016326;28;20443;-78
2023/05/03 03:31:10;;;;;;;;;;;;;;;;;;5014757;28;19913;-77
2023/05/03 03:33:35;;;;;;;;;;;;;;;;;;5011441;28;19920;-78
2023/05/03 03:36:08;;;;;;;;;;;;;;;;;;5011016;28;19913;-78
2023/05/03 03:38:36;;;;;;;;;;;;;;;;;;4995227;28;19918;-78
2023/05/03 03:41:05;;;;;;;;;;;;;;;;;;4995097;28;19986;-77
2023/05/03 03:43:31;;;;;;;;;;;;;;;;;;4996406;28;20380;-77
2023/05/03 03:45:57;;;;;;;;;;;;;;;;;;4979028;28;19928;-78
2023/05/03 03:48:22;;;;;;;;;;;;;;;;;;4996236;28;19918;-76
2023/05/03 03:50:48;;;;;;;;;;;;;;;;;;4987163;28;19913;-77
2023/05/03 03:53:13;;;;;;;;;;;;;;;;;;5001245;28;19914;-78
2023/05/03 03:55:39;;;;;;;;;;;;;;;;;;5011851;28;20399;-77
2023/05/03 03:58:05;;;;;;;;;;;;;;;;;;5014206;28;20394;-77
2023/05/03 04:00:31;;;;;;;;;;;;;;;;;;5013885;28;19913;-77
2023/05/03 04:03:05;;;;;;;;;;;;;;;;;;5014232;28;19917;-75
2023/05/03 04:05:30;;;;;;;;;;;;;;;;;;4998145;28;19921;-78
2023/05/03 04:07:56;;;;;;;;;;;;;;;;;;5014385;28;19913;-77
2023/05/03 04:10:22;;;;;;;;;;;;;;;;;;5000891;28;19920;-77
2023/05/03 04:12:47;;;;;;;;;;;;;;;;;;5015112;28;19913;-77
2023/05/03 04:15:14;;;;;;;;;;;;;;;;;;5014042;28;20349;-78
2023/05/03 04:17:40;;;;;;;;;;;;;;;;;;5013886;28;19920;-78
2023/05/03 04:20:09;;;;;;;;;;;;;;;;;;5013746;28;19913;-78
2023/05/03 04:22:35;;;;;;;;;;;;;;;;;;4997675;28;19963;-78
2023/05/03 04:25:00;;;;;;;;;;;;;;;;;;5013823;28;19917;-78
2023/05/03 04:27:27;;;;;;;;;;;;;;;;;;5013564;28;19921;-77
2023/05/03 04:29:53;;;;;;;;;;;;;;;;;;5013904;28;19913;-78
2023/05/03 04:32:22;;;;;;;;;;;;;;;;;;5014597;28;19921;-77
2023/05/03 04:34:47;;;;;;;;;;;;;;;;;;5014697;28;19976;-77
2023/05/03 04:37:13;;;;;;;;;;;;;;;;;;5014785;28;19936;-78
2023/05/03 04:39:38;;;;;;;;;;;;;;;;;;5014239;28;19918;-78
2023/05/03 04:42:04;;;;;;;;;;;;;;;;;;5015300;28;19963;-76
2023/05/03 04:44:29;;;;;;;;;;;;;;;;;;5015164;28;20365;-77
2023/05/03 04:46:54;;;;;;;;;;;;;;;;;;4989423;28;19920;-77
2023/05/03 04:49:20;;;;;;;;;;;;;;;;;;5013773;28;19914;-77
2023/05/03 04:51:46;;;;;;;;;;;;;;;;;;5012911;28;20385;-77
2023/05/03 04:54:11;;;;;;;;;;;;;;;;;;5013220;28;19913;-78
2023/05/03 04:56:36;;;;;;;;;;;;;;;;;;5014826;28;19913;-77
2023/05/03 04:59:09;;;;;;;;;;;;;;;;;;5013325;28;19925;-78
2023/05/03 05:01:36;;;;;;;;;;;;;;;;;;5012887;28;20349;-77
2023/05/03 05:04:02;;;;;;;;;;;;;;;;;;5013289;28;20021;-79
2023/05/03 05:06:34;;;;;;;;;;;;;;;;;;4997571;28;19956;-78
2023/05/03 05:09:00;;;;;;;;;;;;;;;;;;5014944;28;19921;-78
2023/05/03 05:11:26;;;;;;;;;;;;;;;;;;5013013;28;19917;-78
2023/05/03 05:13:51;;;;;;;;;;;;;;;;;;5013012;28;20269;-79
2023/05/03 05:16:18;;;;;;;;;;;;;;;;;;5012913;28;19917;-77
2023/05/03 05:18:48;;;;;;;;;;;;;;;;;;4996756;28;20005;-79
2023/05/03 05:21:15;;;;;;;;;;;;;;;;;;5012973;28;19925;-77
2023/05/03 05:23:40;;;;;;;;;;;;;;;;;;4993957;28;19914;-79
2023/05/03 05:26:06;;;;;;;;;;;;;;;;;;4996160;28;20369;-78
2023/05/03 05:28:31;;;;;;;;;;;;;;;;;;5014133;28;19914;-77
2023/05/03 05:30:58;;;;;;;;;;;;;;;;;;5014120;28;19914;-77
2023/05/03 05:33:23;;;;;;;;;;;;;;;;;;4998277;28;19997;-78
2023/05/03 05:35:49;;;;;;;;;;;;;;;;;;4980904;28;19914;-77
2023/05/03 05:38:18;;;;;;;;;;;;;;;;;;4979163;28;19937;-78
2023/05/03 05:40:43;;;;;;;;;;;;;;;;;;5003009;28;19967;-77
2023/05/03 05:43:08;;;;;;;;;;;;;;;;;;5012895;28;20387;-77
2023/05/03 05:45:36;;;;;;;;;;;;;;;;;;5009054;28;19918;-78
2023/05/03 05:48:03;;;;;;;;;;;;;;;;;;5013419;28;20044;-78
2023/05/03 05:50:30;;;;;;;;;;;;;;;;;;5015186;28;19963;-79
2023/05/03 05:53:00;;;;;;;;;;;;;;;;;;4998510;28;19961;-78
2023/05/03 05:55:29;;;;;;;;;;;;;;;;;;5013471;28;19945;-78
2023/05/03 05:57:55;;;;;;;;;;;;;;;;;;5013536;28;19924;-79
2023/05/03 06:00:24;;;;;;;;;;;;;;;;;;5014097;28;19921;-78
2023/05/03 06:02:50;;;;;;;;;;;;;;;;;;5012830;28;19917;-79
2023/05/03 06:05:18;;;;;;;;;;;;;;;;;;4992543;28;19920;-77
2023/05/03 06:07:43;;;;;;;;;;;;;;;;;;4991324;28;19913;-78
2023/05/03 06:10:09;;;;;;;;;;;;;;;;;;5012298;28;19913;-77
2023/05/03 06:12:36;;;;;;;;;;;;;;;;;;5012171;28;19968;-77
2023/05/03 06:15:01;;;;;;;;;;;;;;;;;;5011833;28;19964;-76
2023/05/03 06:17:27;;;;;;;;;;;;;;;;;;5011764;28;19960;-77
2023/05/03 06:19:53;;;;;;;;;;;;;;;;;;5012813;28;19925;-78
2023/05/03 06:22:19;;;;;;;;;;;;;;;;;;5011612;28;19913;-78
2023/05/03 06:24:44;;;;;;;;;;;;;;;;;;5012881;28;19953;-78
2023/05/03 06:27:10;;;;;;;;;;;;;;;;;;5012973;28;19913;-79
2023/05/03 06:29:35;;;;;;;;;;;;;;;;;;5011487;28;20300;-78
2023/05/03 06:32:01;;;;;;;;;;;;;;;;;;5011901;28;20438;-79
2023/05/03 06:34:26;;;;;;;;;;;;;;;;;;5012582;28;20444;-78
2023/05/03 06:36:52;;;;;;;;;;;;;;;;;;4994974;28;20311;-77
2023/05/03 06:39:18;;;;;;;;;;;;;;;;;;5012035;28;19918;-78
2023/05/03 06:41:44;;;;;;;;;;;;;;;;;;4994961;28;19921;-76
2023/05/03 06:44:09;;;;;;;;;;;;;;;;;;5011388;28;19914;-76
2023/05/03 06:46:35;;;;;;;;;;;;;;;;;;5001246;28;20443;-78
2023/05/03 06:49:00;;;;;;;;;;;;;;;;;;5012548;28;19913;-78
2023/05/03 06:51:31;;;;;;;;;;;;;;;;;;5011374;28;19924;-80
2023/05/03 06:53:56;;;;;;;;;;;;;;;;;;4978370;28;19924;-76
2023/05/03 06:56:21;;;;;;;;;;;;;;;;;;5010670;28;19918;-77
2023/05/03 06:58:47;;;;;;;;;;;;;;;;;;5011268;28;19917;-77
2023/05/03 07:01:12;;;;;;;;;;;;;;;;;;5012462;28;20419;-78
2023/05/03 07:03:38;;;;;;;;;;;;;;;;;;5917601;22;20946;-79
2023/05/03 07:06:12;;;;;;;;;;;;;;;;;;5094537;28;19916;-80
2023/05/03 07:08:39;;;;;;;;;;;;;;;;;;5077362;28;20024;-79
2023/05/03 07:11:39;;;;;;;;;;;;;;;;;;5079631;28;19955;-80
2023/05/03 07:14:30;;;;;;;;;;;;;;;;;;5048908;28;19951;-80
2023/05/03 07:17:11;;;;;;;;;;;;;;;;;;5043388;28;20012;-80
2023/05/03 07:19:45;;;;;;;;;;;;;;;;;;5039970;28;19916;-82
2023/05/03 07:22:24;;;;;;;;;;;;;;;;;;5042049;28;19912;-81
2023/05/03 07:24:53;;;;;;;;;;;;;;;;;;5074459;28;19909;-81
2023/05/03 07:27:33;;;;;;;;;;;;;;;;;;5055757;28;19912;-81
2023/05/03 07:30:07;;;;;;;;;;;;;;;;;;5051675;28;19913;-80
2023/05/03 07:32:56;;;;;;;;;;;;;;;;;;5034771;28;19924;-82
2023/05/03 07:35:37;;;;;;;;;;;;;;;;;;5034432;28;19948;-81
2023/05/03 07:38:08;;;;;;;;;;;;;;;;;;5036888;28;19939;-81
2023/05/03 07:40:47;;;;;;;;;;;;;;;;;;5035516;28;19951;-79
2023/05/03 07:46:17;;;;;;;;;;;;;;;;;;5046822;28;19914;-78
2023/05/03 07:48:56;;;;;;;;;;;;;;;;;;5030543;28;19917;-80
2023/05/03 07:51:36;;;;;;;;;;;;;;;;;;5030850;28;19913;-81
2023/05/03 07:54:14;;;;;;;;;;;;;;;;;;5029708;28;19917;-82
2023/05/03 07:57:00;;;;;;;;;;;;;;;;;;5033620;28;19917;-81
2023/05/03 07:59:31;;;;;;;;;;;;;;;;;;5030797;28;19925;-80
2023/05/03 08:02:07;;;;;;;;;;;;;;;;;;5019875;28;19913;-81
2023/05/03 08:04:38;;;;;;;;;;;;;;;;;;5020283;28;19921;-79
2023/05/03 08:07:05;;;;;;;;;;;;;;;;;;5038724;28;19913;-81
2023/05/03 08:09:31;;;;;;;;;;;;;;;;;;5056032;28;19920;-77
2023/05/03 08:12:01;;;;;;;;;;;;;;;;;;5041193;28;19923;-82
2023/05/03 08:14:39;;;;;;;;;;;;;;;;;;5044771;28;19952;-82
2023/05/03 08:17:08;;;;;;;;;;;;;;;;;;5042114;28;19984;-81
2023/05/03 08:19:40;;;;;;;;;;;;;;;;;;5041170;28;19992;-80
2023/05/03 08:22:15;;;;;;;;;;;;;;;;;;5045625;28;19948;-82
2023/05/03 08:24:44;;;;;;;;;;;;;;;;;;5054883;28;19913;-84
2023/05/03 08:27:28;;;;;;;;;;;;;;;;;;5059719;28;19911;-84
2023/05/03 08:29:54;;;;;;;;;;;;;;;;;;5046531;28;19916;-86
2023/05/03 08:32:21;;;;;;;;;;;;;;;;;;5043799;28;20406;-85
2023/05/03 08:34:46;;;;;;;;;;;;;;;;;;5061794;28;19913;-85
2023/05/03 08:37:12;;;;;;;;;;;;;;;;;;5021350;28;19913;-87
2023/05/03 08:39:38;;;;;;;;;;;;;;;;;;5055321;28;19962;-86
2023/05/03 08:42:03;;;;;;;;;;;;;;;;;;5047294;28;19958;-85
2023/05/03 08:44:29;;;;;;;;;;;;;;;;;;5037133;28;19952;-81
2023/05/03 08:46:55;;;;;;;;;;;;;;;;;;5034816;28;20363;-86
2023/05/03 08:49:20;;;;;;;;;;;;;;;;;;5035340;28;20287;-87
2023/05/03 08:51:47;;;;;;;;;;;;;;;;;;5036863;28;19952;-87
2023/05/03 08:54:13;;;;;;;;;;;;;;;;;;5022744;28;20295;-87
2023/05/03 08:56:39;;;;;;;;;;;;;;;;;;5030061;28;19913;-87
2023/05/03 08:59:08;;;;;;;;;;;;;;;;;;5020576;28;19923;-86
2023/05/03 09:01:33;;;;;;;;;;;;;;;;;;5001161;28;19921;-86
2023/05/03 09:03:59;;;;;;;;;;;;;;;;;;5008178;28;19913;-85
2023/05/03 09:06:27;;;;;;;;;;;;;;;;;;5015624;28;20291;-86
2023/05/03 09:08:53;;;;;;;;;;;;;;;;;;5036523;28;19923;-85
2023/05/03 09:11:18;;;;;;;;;;;;;;;;;;5020393;28;20350;-85
2023/05/03 09:13:44;;;;;;;;;;;;;;;;;;5018591;28;19913;-85
2023/05/03 09:16:10;;;;;;;;;;;;;;;;;;5009418;28;19920;-85
2023/05/03 09:18:36;;;;;;;;;;;;;;;;;;5016507;28;20240;-85
2023/05/03 09:21:01;;;;;;;;;;;;;;;;;;5032061;28;20004;-85
2023/05/03 09:23:30;;;;;;;;;;;;;;;;;;5053032;28;19962;-85
2023/05/03 09:25:56;;;;;;;;;;;;;;;;;;5054312;28;19951;-85
2023/05/03 09:28:21;;;;;;;;;;;;;;;;;;5032795;28;19971;-85
2023/05/03 09:30:47;;;;;;;;;;;;;;;;;;5054593;28;19951;-85
2023/05/03 09:33:19;;;;;;;;;;;;;;;;;;5055242;28;19913;-85
2023/05/03 09:35:46;;;;;;;;;;;;;;;;;;5040520;28;19913;-85
2023/05/03 09:38:12;;;;;;;;;;;;;;;;;;5019443;28;19924;-85
2023/05/03 09:40:37;;;;;;;;;;;;;;;;;;5049698;28;19948;-78
2023/05/03 09:43:03;;;;;;;;;;;;;;;;;;5042271;28;20232;-85
2023/05/03 09:45:30;;;;;;;;;;;;;;;;;;5043825;28;20387;-85
2023/05/03 09:47:56;;;;;;;;;;;;;;;;;;5040704;28;19920;-85
2023/05/03 09:50:21;;;;;;;;;;;;;;;;;;5037572;28;20291;-85
2023/05/03 09:52:47;;;;;;;;;;;;;;;;;;5038206;28;20284;-86
2023/05/03 09:55:12;;;;;;;;;;;;;;;;;;5054636;28;19912;-86
2023/05/03 09:57:38;;;;;;;;;;;;;;;;;;5021777;28;19919;-85
2023/05/03 10:00:03;;;;;;;;;;;;;;;;;;5022199;28;20284;-87
2023/05/03 10:02:37;;;;;;;;;;;;;;;;;;5030136;28;19920;-86
2023/05/03 10:05:02;;;;;;;;;;;;;;;;;;5015613;28;19917;-85
2023/05/03 10:07:28;;;;;;;;;;;;;;;;;;5034308;28;19936;-87
2023/05/03 10:09:56;;;;;;;;;;;;;;;;;;5043938;28;19928;-78
2023/05/03 10:12:22;;;;;;;;;;;;;;;;;;5030346;28;19949;-80
2023/05/03 10:14:48;;;;;;;;;;;;;;;;;;5045725;28;19916;-81
2023/05/03 10:17:14;;;;;;;;;;;;;;;;;;5025100;28;19913;-80
2023/05/03 10:19:40;;;;;;;;;;;;;;;;;;5058824;28;19923;-80
2023/05/03 10:22:06;;;;;;;;;;;;;;;;;;5044657;28;19922;-78
2023/05/03 10:24:31;;;;;;;;;;;;;;;;;;5043005;28;19913;-80
2023/05/03 10:26:57;;;;;;;;;;;;;;;;;;5029517;28;19913;-80
2023/05/03 10:29:23;;;;;;;;;;;;;;;;;;5011278;28;19940;-80
2023/05/03 10:31:49;;;;;;;;;;;;;;;;;;5055912;28;19939;-82
2023/05/03 10:34:14;;;;;;;;;;;;;;;;;;5065420;28;19920;-81
2023/05/03 10:36:40;;;;;;;;;;;;;;;;;;5062276;28;19913;-81
2023/05/03 10:39:08;;;;;;;;;;;;;;;;;;5043871;28;19980;-80
2023/05/03 10:41:37;;;;;;;;;;;;;;;;;;5022113;28;19920;-79
2023/05/03 10:44:03;;;;;;;;;;;;;;;;;;5005687;28;19917;-78
2023/05/03 10:46:29;;;;;;;;;;;;;;;;;;5022349;28;19967;-80
2023/05/03 10:48:54;;;;;;;;;;;;;;;;;;5056207;28;20058;-79
2023/05/03 10:51:20;;;;;;;;;;;;;;;;;;5064399;28;20291;-79
2023/05/03 10:53:46;;;;;;;;;;;;;;;;;;5027427;28;19913;-80
2023/05/03 10:56:11;;;;;;;;;;;;;;;;;;5047041;28;20383;-80
2023/05/03 10:58:37;;;;;;;;;;;;;;;;;;5032458;28;19925;-81
2023/05/03 11:01:03;;;;;;;;;;;;;;;;;;5051131;28;19976;-79
2023/05/03 11:03:37;;;;;;;;;;;;;;;;;;5053652;28;19932;-79
2023/05/03 11:06:04;;;;;;;;;;;;;;;;;;5022475;28;20016;-80
2023/05/03 11:08:36;;;;;;;;;;;;;;;;;;5032550;28;19901;-79
2023/05/03 11:11:11;;;;;;;;;;;;;;;;;;5058683;28;19900;-80
2023/05/03 11:13:40;;;;;;;;;;;;;;;;;;5057763;28;19917;-81
2023/05/03 11:16:30;;;;;;;;;;;;;;;;;;5048036;28;19924;-80
2023/05/03 11:19:02;;;;;;;;;;;;;;;;;;5059289;28;19905;-80
2023/05/03 11:21:31;;;;;;;;;;;;;;;;;;5058189;28;19924;-80
2023/05/03 11:24:12;;;;;;;;;;;;;;;;;;5058171;28;19897;-80
2023/05/03 11:26:47;;;;;;;;;;;;;;;;;;5074312;28;19924;-80
2023/05/03 11:29:22;;;;;;;;;;;;;;;;;;5051761;28;19952;-83
2023/05/03 11:31:51;;;;;;;;;;;;;;;;;;5050567;28;20367;-84
2023/05/03 11:34:16;;;;;;;;;;;;;;;;;;5037671;28;19913;-81
2023/05/03 11:36:42;;;;;;;;;;;;;;;;;;5016051;28;19920;-83
2023/05/03 11:39:08;;;;;;;;;;;;;;;;;;5038123;28;20275;-83
2023/05/03 11:41:41;;;;;;;;;;;;;;;;;;5028457;28;19913;-85
2023/05/03 11:44:07;;;;;;;;;;;;;;;;;;5024576;28;19936;-83
2023/05/03 11:46:33;;;;;;;;;;;;;;;;;;5015485;28;19912;-84
2023/05/03 11:48:59;;;;;;;;;;;;;;;;;;5040275;28;19963;-84
2023/05/03 11:51:26;;;;;;;;;;;;;;;;;;5039213;28;19916;-85
2023/05/03 11:53:52;;;;;;;;;;;;;;;;;;5026268;28;19913;-85
2023/05/03 11:56:19;;;;;;;;;;;;;;;;;;5044752;28;19961;-83
2023/05/03 11:58:45;;;;;;;;;;;;;;;;;;5044268;28;19939;-84
2023/05/03 12:01:10;;;;;;;;;;;;;;;;;;5028586;28;19913;-84
2023/05/03 12:03:39;;;;;;;;;;;;;;;;;;5031941;28;19943;-82
2023/05/03 12:06:05;;;;;;;;;;;;;;;;;;5047290;28;19917;-82
2023/05/03 12:08:34;;;;;;;;;;;;;;;;;;5068133;28;19901;-83
2023/05/03 12:11:09;;;;;;;;;;;;;;;;;;5048274;28;19917;-83
2023/05/03 12:13:38;;;;;;;;;;;;;;;;;;5033558;28;19932;-82
2023/05/03 12:16:06;;;;;;;;;;;;;;;;;;5026887;28;19920;-82
2023/05/03 12:18:32;;;;;;;;;;;;;;;;;;5017421;28;20268;-84
2023/05/03 12:21:09;;;;;;;;;;;;;;;;;;5030103;28;19928;-83
2023/05/03 12:23:35;;;;;;;;;;;;;;;;;;5043191;28;19917;-84
2023/05/03 12:26:01;;;;;;;;;;;;;;;;;;5024939;28;19909;-86
2023/05/03 12:28:35;;;;;;;;;;;;;;;;;;5007771;28;20064;-85
2023/05/03 12:31:17;;;;;;;;;;;;;;;;;;5038518;28;19919;-85
2023/05/03 12:33:43;;;;;;;;;;;;;;;;;;5044977;28;20011;-84
2023/05/03 12:37:02;;;;;;;;;;;;;;;;;;5039832;28;19931;-84
2023/05/03 12:39:34;;;;;;;;;;;;;;;;;;5038920;28;19917;-85
2023/05/03 12:42:02;;;;;;;;;;;;;;;;;;5044052;28;19935;-86
2023/05/03 12:44:28;;;;;;;;;;;;;;;;;;5021578;28;19917;-85
2023/05/03 12:46:56;;;;;;;;;;;;;;;;;;5034232;28;19913;-84
2023/05/03 12:49:22;;;;;;;;;;;;;;;;;;5021858;28;19913;-83
2023/05/03 12:51:47;;;;;;;;;;;;;;;;;;5021464;28;19927;-85
2023/05/03 12:54:13;;;;;;;;;;;;;;;;;;5021623;28;19913;-84
2023/05/03 12:56:38;;;;;;;;;;;;;;;;;;5020645;28;19939;-85
2023/05/03 12:59:04;;;;;;;;;;;;;;;;;;5035965;28;19923;-85
2023/05/03 13:01:30;;;;;;;;;;;;;;;;;;5008879;28;19920;-85
2023/05/03 13:03:55;;;;;;;;;;;;;;;;;;5016440;28;20008;-85
2023/05/03 13:06:21;;;;;;;;;;;;;;;;;;5011512;28;19960;-85
2023/05/03 13:08:46;;;;;;;;;;;;;;;;;;5019729;28;19978;-86
2023/05/03 13:11:12;;;;;;;;;;;;;;;;;;5016356;28;19913;-86
2023/05/03 13:13:38;;;;;;;;;;;;;;;;;;5006125;28;20284;-86
2023/05/03 13:16:04;;;;;;;;;;;;;;;;;;5019834;28;20295;-87
2023/05/03 13:18:30;;;;;;;;;;;;;;;;;;5016107;28;19944;-86
2023/05/03 13:20:56;;;;;;;;;;;;;;;;;;5019433;28;19912;-86
2023/05/03 13:23:22;;;;;;;;;;;;;;;;;;5016366;28;19913;-85
2023/05/03 13:25:48;;;;;;;;;;;;;;;;;;5006926;28;20303;-86
2023/05/03 13:28:18;;;;;;;;;;;;;;;;;;5019372;28;19936;-86
2023/05/03 13:30:44;;;;;;;;;;;;;;;;;;5017844;28;19919;-84
2023/05/03 13:33:10;;;;;;;;;;;;;;;;;;5036169;28;19992;-86
2023/05/03 13:35:36;;;;;;;;;;;;;;;;;;5023136;28;20364;-86
2023/05/03 13:38:01;;;;;;;;;;;;;;;;;;5013203;28;19976;-86
2023/05/03 13:40:27;;;;;;;;;;;;;;;;;;5016709;28;19913;-86
2023/05/03 13:42:53;;;;;;;;;;;;;;;;;;5019526;28;19978;-86
2023/05/03 13:45:19;;;;;;;;;;;;;;;;;;5036503;28;20368;-86
2023/05/03 13:47:44;;;;;;;;;;;;;;;;;;5016986;28;19931;-87
2023/05/03 13:50:10;;;;;;;;;;;;;;;;;;5010491;28;19920;-86
2023/05/03 13:52:35;;;;;;;;;;;;;;;;;;5050227;28;19967;-85
2023/05/03 13:55:03;;;;;;;;;;;;;;;;;;5052513;28;19920;-85
2023/05/03 13:57:28;;;;;;;;;;;;;;;;;;5016432;28;19917;-86
2023/05/03 13:59:54;;;;;;;;;;;;;;;;;;5040558;28;19940;-86
2023/05/03 14:02:19;;;;;;;;;;;;;;;;;;5030558;28;20001;-86
2023/05/03 14:04:47;;;;;;;;;;;;;;;;;;5017497;28;20193;-86
2023/05/03 14:07:13;;;;;;;;;;;;;;;;;;5015189;28;19967;-86
2023/05/03 14:09:38;;;;;;;;;;;;;;;;;;5034739;28;19913;-86
2023/05/03 14:12:04;;;;;;;;;;;;;;;;;;5036148;28;19920;-87
2023/05/03 14:14:30;;;;;;;;;;;;;;;;;;5036047;28;19993;-86
2023/05/03 14:16:55;;;;;;;;;;;;;;;;;;5002965;28;19913;-85
2023/05/03 14:19:21;;;;;;;;;;;;;;;;;;5052881;28;19920;-85
2023/05/03 14:21:48;;;;;;;;;;;;;;;;;;5036349;28;20310;-87
2023/05/03 14:24:14;;;;;;;;;;;;;;;;;;5015592;28;19913;-87
2023/05/03 14:26:40;;;;;;;;;;;;;;;;;;5016737;28;19913;-86
2023/05/03 14:29:05;;;;;;;;;;;;;;;;;;5052174;28;20000;-86
2023/05/03 14:31:31;;;;;;;;;;;;;;;;;;5015100;28;19968;-87
2023/05/03 14:33:58;;;;;;;;;;;;;;;;;;5010223;28;20300;-86
2023/05/03 14:36:24;;;;;;;;;;;;;;;;;;5015974;28;19913;-87
2023/05/03 14:38:49;;;;;;;;;;;;;;;;;;5017386;28;19988;-86
2023/05/03 14:41:14;;;;;;;;;;;;;;;;;;5019012;28;19923;-86
2023/05/03 14:43:40;;;;;;;;;;;;;;;;;;5015883;28;19913;-87
2023/05/03 14:46:07;;;;;;;;;;;;;;;;;;5013355;28;19936;-86
2023/05/03 14:48:33;;;;;;;;;;;;;;;;;;5018223;28;19920;-86
2023/05/03 14:50:58;;;;;;;;;;;;;;;;;;5016454;28;19930;-87
2023/05/03 14:53:24;;;;;;;;;;;;;;;;;;5002066;28;19917;-86
2023/05/03 14:55:52;;;;;;;;;;;;;;;;;;5018123;28;19916;-87
2023/05/03 14:58:17;;;;;;;;;;;;;;;;;;5014469;28;19963;-86
2023/05/03 15:00:46;;;;;;;;;;;;;;;;;;5014437;28;19943;-86
2023/05/03 15:03:12;;;;;;;;;;;;;;;;;;5034756;28;20011;-87
2023/05/03 15:05:38;;;;;;;;;;;;;;;;;;5022886;28;20014;-86
2023/05/03 15:08:04;;;;;;;;;;;;;;;;;;5012392;28;19912;-86
2023/05/03 15:10:29;;;;;;;;;;;;;;;;;;5015200;28;19925;-87
2023/05/03 15:12:58;;;;;;;;;;;;;;;;;;5034294;28;20108;-86
2023/05/03 15:15:24;;;;;;;;;;;;;;;;;;5050727;28;19923;-86
2023/05/03 15:17:50;;;;;;;;;;;;;;;;;;5036592;28;20295;-86
2023/05/03 15:20:16;;;;;;;;;;;;;;;;;;5056280;28;19957;-85
2023/05/03 15:22:41;;;;;;;;;;;;;;;;;;5019522;28;20501;-87
2023/05/03 15:25:07;;;;;;;;;;;;;;;;;;5018338;28;20037;-88
2023/05/03 15:27:36;;;;;;;;;;;;;;;;;;5011313;28;19912;-87
2023/05/03 15:30:06;;;;;;;;;;;;;;;;;;5019125;28;19913;-86
2023/05/03 15:32:31;;;;;;;;;;;;;;;;;;5039159;28;19912;-86
2023/05/03 15:34:57;;;;;;;;;;;;;;;;;;5019020;28;19909;-85
2023/05/03 15:37:24;;;;;;;;;;;;;;;;;;5027974;28;19919;-86
2023/05/03 15:39:50;;;;;;;;;;;;;;;;;;5038361;28;19947;-86
2023/05/03 15:42:16;;;;;;;;;;;;;;;;;;5030276;28;19936;-87
2023/05/03 15:44:45;;;;;;;;;;;;;;;;;;5035691;28;19958;-87
2023/05/03 15:47:11;;;;;;;;;;;;;;;;;;5019479;28;19913;-87
2023/05/03 15:49:37;;;;;;;;;;;;;;;;;;5008818;28;20300;-86
2023/05/03 15:52:03;;;;;;;;;;;;;;;;;;5039095;28;19951;-86
2023/05/03 15:54:29;;;;;;;;;;;;;;;;;;5038885;28;19996;-86
2023/05/03 15:56:55;;;;;;;;;;;;;;;;;;5038214;28;19919;-85
2023/05/03 15:59:26;;;;;;;;;;;;;;;;;;5022051;28;19921;-85
2023/05/03 16:01:53;;;;;;;;;;;;;;;;;;5029273;28;20380;-85
2023/05/03 16:04:19;;;;;;;;;;;;;;;;;;5017681;28;20330;-85
2023/05/03 16:06:44;;;;;;;;;;;;;;;;;;5036628;28;19917;-85
2023/05/03 16:09:11;;;;;;;;;;;;;;;;;;5020567;28;19913;-86
2023/05/03 16:11:37;;;;;;;;;;;;;;;;;;5007745;28;20003;-84
2023/05/03 16:14:08;;;;;;;;;;;;;;;;;;5035942;28;20434;-86
2023/05/03 16:16:33;;;;;;;;;;;;;;;;;;5018348;28;20276;-85
2023/05/03 16:18:59;;;;;;;;;;;;;;;;;;5053608;28;19913;-86
2023/05/03 16:21:25;;;;;;;;;;;;;;;;;;5053774;28;20351;-85
2023/05/03 16:23:51;;;;;;;;;;;;;;;;;;5037601;28;19917;-85
2023/05/03 16:26:18;;;;;;;;;;;;;;;;;;5020892;28;20335;-84
2023/05/03 16:28:44;;;;;;;;;;;;;;;;;;5010870;28;20004;-86
2023/05/03 16:31:09;;;;;;;;;;;;;;;;;;5037023;28;20343;-85
2023/05/03 16:33:37;;;;;;;;;;;;;;;;;;5018608;28;19913;-86
2023/05/03 16:36:03;;;;;;;;;;;;;;;;;;5036978;28;19963;-86
2023/05/03 16:38:29;;;;;;;;;;;;;;;;;;5036903;28;19913;-86
2023/05/03 16:40:55;;;;;;;;;;;;;;;;;;5018637;28;19913;-87
2023/05/03 16:43:20;;;;;;;;;;;;;;;;;;5021102;28;19952;-86
2023/05/03 16:45:46;;;;;;;;;;;;;;;;;;5026174;28;19913;-86
2023/05/03 16:48:12;;;;;;;;;;;;;;;;;;5040202;28;19920;-86
2023/05/03 16:50:38;;;;;;;;;;;;;;;;;;5038504;28;19916;-86